createdAt,value
2023-12-23T00:00:56.338Z,1.853
2023-12-23T00:05:52.646Z,2.672
2023-12-23T00:10:55.520Z,6.884
2023-12-23T00:15:53.879Z,3.273
2023-12-23T00:20:53.782Z,4.308
2023-12-23T00:25:50.551Z,1.877
2023-12-23T00:30:54.519Z,2.816
2023-12-23T00:35:50.737Z,2.551
2023-12-23T00:40:57.187Z,3.417
2023-12-23T00:45:53.411Z,1.733
2023-12-23T00:50:50.338Z,0.722
2023-12-23T00:55:52.450Z,2.455
2023-12-23T01:00:52.182Z,0.577
2023-12-23T01:05:50.314Z,0.264
2023-12-23T01:10:52.400Z,0.433
2023-12-23T01:15:48.628Z,0.866
2023-12-23T01:20:51.800Z,0.408
2023-12-23T01:25:52.493Z,0.794
2023-12-23T01:30:53.380Z,2.286
2023-12-23T01:35:51.811Z,2.96
2023-12-23T01:40:52.949Z,1.444
2023-12-23T01:45:52.274Z,3.394
2023-12-23T01:50:53.467Z,2.286
2023-12-23T01:55:54.532Z,1.564
2023-12-23T02:00:50.673Z,2.214
2023-12-23T02:05:51.604Z,2.069
2023-12-23T02:10:51.802Z,1.011
2023-12-23T02:15:50.833Z,1.155
2023-12-23T02:20:54.350Z,0.577
2023-12-23T02:25:53.960Z,0.697
2023-12-23T02:30:54.002Z,0.577
2023-12-23T02:35:51.028Z,0.697
2023-12-23T02:40:50.388Z,0.577
2023-12-23T02:45:52.318Z,0
2023-12-23T02:50:50.859Z,0.986
2023-12-23T02:55:52.549Z,0.577
2023-12-23T03:00:53.546Z,0
2023-12-23T03:05:50.798Z,0.577
2023-12-23T03:10:50.052Z,0.288
2023-12-23T03:15:53.309Z,0.288
2023-12-23T03:20:56.382Z,0
2023-12-23T03:25:50.634Z,0
2023-12-23T03:30:55.877Z,0
2023-12-23T03:35:59.075Z,0.288
2023-12-23T03:40:57.923Z,0
2023-12-23T03:45:56.299Z,0
2023-12-23T03:50:57.549Z,0.144
2023-12-23T03:55:56.792Z,0.288
2023-12-23T04:00:55.773Z,0
2023-12-23T04:05:54.081Z,0
2023-12-23T04:11:00.785Z,0.144
2023-12-23T04:15:58.961Z,0.144
2023-12-23T04:21:00.546Z,0.144
2023-12-23T04:25:56.571Z,0.577
2023-12-23T04:30:58.143Z,0.962
2023-12-23T04:35:58.680Z,0.553
2023-12-23T04:40:58.178Z,0.577
2023-12-23T04:45:57.387Z,0
2023-12-23T04:50:57.534Z,0.288
2023-12-23T04:56:00.806Z,0.144
2023-12-23T05:01:00.957Z,0.986
2023-12-23T05:05:57.442Z,0.697
2023-12-23T05:10:56.900Z,0.577
2023-12-23T05:15:50.018Z,0.144
2023-12-23T05:20:51.729Z,0.288
2023-12-23T05:25:53.300Z,0.722
2023-12-23T05:30:52.553Z,0.144
2023-12-23T05:35:52.294Z,0.144
2023-12-23T05:40:51.674Z,0
2023-12-23T05:45:51.483Z,0.288
2023-12-23T05:50:51.611Z,0.288
2023-12-23T05:55:58.810Z,0.144
2023-12-23T06:00:52.318Z,0.144
2023-12-23T06:05:55.768Z,0.144
2023-12-23T06:11:07.000Z,0.144
2023-12-23T06:15:52.739Z,0
2023-12-23T06:20:54.008Z,0.144
2023-12-23T06:25:52.164Z,0.433
2023-12-23T06:30:52.076Z,1.395
2023-12-23T06:35:53.473Z,0.433
2023-12-23T06:40:56.054Z,2.455
2023-12-23T06:45:53.208Z,2.816
2023-12-23T06:50:54.462Z,1.853
2023-12-23T06:56:01.284Z,1.227
2023-12-23T07:01:00.317Z,2.719
2023-12-23T07:05:56.421Z,2.406
2023-12-23T07:10:57.413Z,3.947
2023-12-23T07:15:58.946Z,2.744
2023-12-23T07:21:11.301Z,2.672
2023-12-23T07:26:00.912Z,1.588
2023-12-23T07:35:58.862Z,1.708
2023-12-23T07:41:06.635Z,3.972
2023-12-23T07:46:06.091Z,2.864
2023-12-23T07:56:05.566Z,2.984
2023-12-23T08:01:21.190Z,2.551
2023-12-23T08:56:26.574Z,3.489
2023-12-23T10:55:55.395Z,0.866
2023-12-23T11:00:54.321Z,0.722
2023-12-23T11:05:56.484Z,2.719
2023-12-23T11:10:58.547Z,19.33
2023-12-23T11:15:57.948Z,16.129
2023-12-23T11:20:55.409Z,18.247
2023-12-23T11:25:56.486Z,17.332
2023-12-23T11:30:56.431Z,9.363
2023-12-23T11:36:02.348Z,5.897
2023-12-23T11:40:59.367Z,2.311
2023-12-23T11:45:56.329Z,20.052
2023-12-23T11:50:57.079Z,11.121
2023-12-23T11:56:00.806Z,8.425
2023-12-23T12:01:02.643Z,4.236
2023-12-23T12:06:05.238Z,3.008
2023-12-23T12:11:06.836Z,3.417
2023-12-23T12:16:03.220Z,25.42
2023-12-23T12:21:05.682Z,22.531
2023-12-23T12:26:06.012Z,10.158
2023-12-23T12:31:06.230Z,8.738
2023-12-23T12:36:05.526Z,5.969
2023-12-23T12:41:05.726Z,6.571
2023-12-23T12:46:07.406Z,4.862
2023-12-23T12:51:06.062Z,6.523
2023-12-23T12:56:06.409Z,2.406
2023-12-23T13:01:01.286Z,3.056
2023-12-23T13:06:03.114Z,8.497
2023-12-23T13:11:03.158Z,5.295
2023-12-23T13:15:59.602Z,3.249
2023-12-23T13:20:58.534Z,4.477
2023-12-23T13:25:55.604Z,3.417
2023-12-23T13:30:52.375Z,2.864
2023-12-23T13:35:52.946Z,2.527
2023-12-23T13:40:52.676Z,1.588
2023-12-23T13:45:53.906Z,1.733
2023-12-23T13:50:57.796Z,1.877
2023-12-23T13:55:54.037Z,1.805
2023-12-23T14:00:56.710Z,0.722
2023-12-23T14:05:55.994Z,2.551
2023-12-23T14:10:57.039Z,1.973
2023-12-23T14:15:52.496Z,1.011
2023-12-23T14:20:55.843Z,1.684
2023-12-23T14:25:54.272Z,0.842
2023-12-23T14:30:57.003Z,2.936
2023-12-23T14:35:58.869Z,2.286
2023-12-23T14:40:55.421Z,8.521
2023-12-23T14:45:56.562Z,5.994
2023-12-23T14:50:57.223Z,5.367
2023-12-23T14:55:52.892Z,6.691
2023-12-23T15:00:53.420Z,6.547
2023-12-23T15:05:51.769Z,8.497
2023-12-23T15:10:54.168Z,3.658
2023-12-23T15:15:53.737Z,4.621
2023-12-23T15:20:51.380Z,5.464
2023-12-23T15:25:51.434Z,8.713
2023-12-23T15:30:58.479Z,11.121
2023-12-23T15:35:53.710Z,12.252
2023-12-23T15:40:52.662Z,12.204
2023-12-23T15:45:51.087Z,10.64
2023-12-23T15:50:51.708Z,7.703
2023-12-23T15:55:52.032Z,6.041
2023-12-23T16:00:50.640Z,6.547
2023-12-23T16:05:51.405Z,10.062
2023-12-23T16:10:48.991Z,9.965
2023-12-23T16:15:51.541Z,7.318
2023-12-23T16:20:59.844Z,8.377
2023-12-23T16:26:06.286Z,7.341
2023-12-23T16:30:59.889Z,8.112
2023-12-23T16:35:57.633Z,10.11
2023-12-23T16:40:59.247Z,10.543
2023-12-23T16:45:59.199Z,9.677
2023-12-23T16:50:58.356Z,6.956
2023-12-23T16:56:06.775Z,5.488
2023-12-23T17:01:01.183Z,9.05
2023-12-23T17:06:02.638Z,9.147
2023-12-23T17:11:00.601Z,9.027
2023-12-23T17:16:00.528Z,11.94
2023-12-23T17:21:00.719Z,10.857
2023-12-23T17:25:59.937Z,23.254
2023-12-23T17:31:00.258Z,16.032
2023-12-23T17:36:02.258Z,21.809
2023-12-23T17:40:54.605Z,20.053
2023-12-23T17:45:52.802Z,17.572
2023-12-23T17:50:50.326Z,14.635
2023-12-23T17:55:52.852Z,9.99
2023-12-23T18:00:57.063Z,8.786
2023-12-23T18:05:50.789Z,10.952
2023-12-23T18:10:50.128Z,9.58
2023-12-23T18:15:54.163Z,8.834
2023-12-23T18:20:56.839Z,6.547
2023-12-23T18:25:53.668Z,8.521
2023-12-23T18:30:58.953Z,6.33
2023-12-23T18:36:02.860Z,7.293
2023-12-23T18:40:52.180Z,7.823
2023-12-23T18:45:56.341Z,4.934
2023-12-23T18:50:52.648Z,11.217
2023-12-23T18:55:57.541Z,18.319
2023-12-23T19:00:52.640Z,8.738
2023-12-23T19:05:53.841Z,5.705
2023-12-23T19:11:05.531Z,6.547
2023-12-23T19:15:52.891Z,6.282
2023-12-23T19:20:54.494Z,2.744
2023-12-23T19:25:51.900Z,5.271
2023-12-23T19:30:54.758Z,8.641
2023-12-23T19:35:53.226Z,5.319
2023-12-23T19:40:54.047Z,7.317
2023-12-23T19:45:52.165Z,5.994
2023-12-23T19:50:52.621Z,6.306
2023-12-23T19:55:51.588Z,16.008
2023-12-23T20:00:56.626Z,16.297
2023-12-23T20:05:51.691Z,7.871
2023-12-23T20:10:51.160Z,11.963
2023-12-23T20:15:53.787Z,10.977
2023-12-23T20:20:52.246Z,9.604
2023-12-23T20:25:50.831Z,8.039
2023-12-23T20:30:57.544Z,5.945
2023-12-23T20:36:05.021Z,5.56
2023-12-23T20:41:03.002Z,5.055
2023-12-23T20:45:58.926Z,3.73
2023-12-23T20:51:00.236Z,3.61
2023-12-23T20:56:06.213Z,4.789
2023-12-23T21:00:56.645Z,3.514
2023-12-23T21:05:54.499Z,4.621
2023-12-23T21:11:00.799Z,6.306
2023-12-23T21:15:54.733Z,4.934
2023-12-23T21:20:59.988Z,3.827
2023-12-23T21:25:58.653Z,3.634
2023-12-23T21:31:02.000Z,3.08
2023-12-23T21:35:56.510Z,5.752
2023-12-23T21:40:55.686Z,6.378
2023-12-23T21:46:01.603Z,4.886
2023-12-23T21:51:03.041Z,5.511
2023-12-23T21:55:53.427Z,5.175
2023-12-23T22:00:50.698Z,4.694
2023-12-23T22:05:52.535Z,4.116
2023-12-23T22:10:52.190Z,3.322
2023-12-23T22:15:52.475Z,2.455
2023-12-23T22:20:56.391Z,2.599
2023-12-23T22:25:50.464Z,0.433
2023-12-23T22:30:50.613Z,0.866
2023-12-23T22:35:58.611Z,0.986
2023-12-23T22:40:51.736Z,0.553
2023-12-23T22:45:53.747Z,0.817
2023-12-23T22:50:53.872Z,1.684
2023-12-23T22:55:52.120Z,1.588
2023-12-23T23:01:18.894Z,0.577
2023-12-23T23:05:54.244Z,0.866
2023-12-23T23:10:57.503Z,0.722
2023-12-23T23:15:50.299Z,0.986
2023-12-23T23:20:51.389Z,2.406
2023-12-23T23:25:50.330Z,1.564
2023-12-23T23:30:53.732Z,0.697
2023-12-23T23:35:51.823Z,4.116
2023-12-23T23:40:52.301Z,4.092
2023-12-23T23:45:54.573Z,2.888
2023-12-23T23:50:53.326Z,1.805
2023-12-23T23:55:51.239Z,1.419
